Time;durP1;ratioP1;P1;durP2;ratioP2;P2;SDS_P1;SDS_P2;PMS_P1;PMS_P2;Temp;Humidity;BMP_temperature;BMP_pressure;BME280_temperature;BME280_humidity;BME280_pressure;Samples;Min_cycle;Max_cycle;Signal;HPM_P1;HPM_P2
2024/03/24 00:06:14;;;;;;;6.2;3.1;;;;;;;4.8;79.85;97753.333333333;;;;
2024/03/24 00:17:13;;;;;;;6.2;3.1;;;;;;;4.81;79.82;97740;;;;
2024/03/24 00:27:13;;;;;;;6.2;3.1;;;;;;;4.84;80.4;97703.333333333;;;;
2024/03/24 00:38:13;;;;;;;6.5;3;;;;;;;4.84;79.85;97623.333333333;;;;
2024/03/24 00:48:13;;;;;;;6.5;3;;;;;;;4.82;79.23;97633.333333333;;;;
2024/03/24 00:58:13;;;;;;;6.7;2.9;;;;;;;4.67;79.73;97610;;;;
2024/03/24 01:09:13;;;;;;;6.7;2.9;;;;;;;4.35;80.12;97611.666666667;;;;
2024/03/24 01:20:13;;;;;;;6.7;2.9;;;;;;;4.04;80.42;97618.333333333;;;;
2024/03/24 01:31:13;;;;;;;6.9;2.7;;;;;;;3.93;82.08;97636.666666667;;;;
2024/03/24 01:42:13;;;;;;;6.9;2.7;;;;;;;4.03;82.83;97618.333333333;;;;
2024/03/24 01:52:13;;;;;;;6.9;2.7;;;;;;;3.97;82.35;97616.666666667;;;;
2024/03/24 02:02:13;;;;;;;7.6;2.7;;;;;;;3.95;82.28;97636.666666667;;;;
2024/03/24 02:13:13;;;;;;;7.6;2.7;;;;;;;4.02;81.92;97650;;;;
2024/03/24 02:23:13;;;;;;;7.6;2.7;;;;;;;4.08;81.59;97636.666666667;;;;
2024/03/24 02:34:13;;;;;;;4.8;2.6;;;;;;;3.98;81.18;97635;;;;
2024/03/24 02:44:13;;;;;;;4.8;2.6;;;;;;;3.79;81.7;97608.333333333;;;;
2024/03/24 02:55:13;;;;;;;4.8;2.6;;;;;;;3.74;82.37;97605;;;;
2024/03/24 03:06:13;;;;;;;6.4;2.7;;;;;;;3.71;82.84;97618.333333333;;;;
2024/03/24 03:17:13;;;;;;;6.4;2.7;;;;;;;3.66;82.75;97621.666666667;;;;
2024/03/24 03:27:13;;;;;;;6.9;3.3;;;;;;;3.79;82.34;97611.666666667;;;;
2024/03/24 03:38:13;;;;;;;6.9;3.3;;;;;;;3.85;81.37;97585;;;;
2024/03/24 03:48:13;;;;;;;6.9;3.3;;;;;;;3.66;81.15;97580;;;;
2024/03/24 03:59:14;;;;;;;7.2;3.2;;;;;;;3.37;81.44;97575;;;;
2024/03/24 04:09:16;;;;;;;7.2;3.2;;;;;;;3.12;81.8;97583.333333333;;;;
2024/03/24 04:19:13;;;;;;;7.2;3.2;;;;;;;3.22;82.95;97583.333333333;;;;
2024/03/24 04:29:13;;;;;;;4.7;2.4;;;;;;;3.46;83.48;97565;;;;
2024/03/24 04:40:14;;;;;;;4.7;2.4;;;;;;;3.58;83.54;97576.666666667;;;;
2024/03/24 04:50:13;;;;;;;4.7;2.4;;;;;;;3.71;83.49;97603.333333333;;;;
2024/03/24 05:01:13;;;;;;;5.8;2.4;;;;;;;3.78;83.99;97600;;;;
2024/03/24 05:11:13;;;;;;;5.8;2.4;;;;;;;3.88;84.49;97590;;;;
2024/03/24 05:21:13;;;;;;;5.8;2.4;;;;;;;4.18;84.53;97595;;;;
2024/03/24 05:32:13;;;;;;;6.9;3.7;;;;;;;4.35;84.43;97585;;;;
2024/03/24 05:42:13;;;;;;;6.9;3.7;;;;;;;4.55;82.73;97581.666666667;;;;
2024/03/24 05:53:13;;;;;;;6.9;3.7;;;;;;;4.84;81.59;97571.666666667;;;;
2024/03/24 06:03:13;;;;;;;5.8;2.7;;;;;;;5.02;80.96;97575;;;;
2024/03/24 06:13:13;;;;;;;5.8;2.7;;;;;;;5.3;80.12;97576.666666667;;;;
2024/03/24 06:24:13;;;;;;;5.8;2.7;;;;;;;5.73;78.83;97583.333333333;;;;
2024/03/24 06:35:13;;;;;;;6.3;3.5;;;;;;;6.14;77.63;97583.333333333;;;;
2024/03/24 06:45:13;;;;;;;6.3;3.5;;;;;;;6.51;76.04;97590;;;;
2024/03/24 06:55:13;;;;;;;6.3;3.5;;;;;;;6.63;77.11;97601.666666667;;;;
2024/03/24 07:06:13;;;;;;;7.2;3.5;;;;;;;6.41;77.11;97618.333333333;;;;
2024/03/24 07:16:13;;;;;;;7.2;3.5;;;;;;;6.4;76.67;97616.666666667;;;;
2024/03/24 07:27:13;;;;;;;8.6;4.3;;;;;;;6.42;77.15;97621.666666667;;;;
2024/03/24 07:37:14;;;;;;;8.6;4.3;;;;;;;6.44;78.46;97620;;;;
2024/03/24 07:48:13;;;;;;;8.6;4.3;;;;;;;6.52;78.08;97621.666666667;;;;
2024/03/24 07:58:13;;;;;;;10.1;5.4;;;;;;;6.9;77.14;97615;;;;
2024/03/24 08:09:13;;;;;;;10.1;5.4;;;;;;;6.45;77.34;97625;;;;
2024/03/24 08:20:13;;;;;;;10.1;5.4;;;;;;;5.62;79.98;97633.333333333;;;;
2024/03/24 08:31:13;;;;;;;7.8;4.4;;;;;;;5.65;80.78;97636.666666667;;;;
2024/03/24 08:41:13;;;;;;;7.8;4.4;;;;;;;6.14;80.93;97633.333333333;;;;
2024/03/24 08:52:13;;;;;;;7.8;4.4;;;;;;;6.91;79.41;97630;;;;
2024/03/24 09:03:13;;;;;;;9.3;4.9;;;;;;;7.94;77;97616.666666667;;;;
2024/03/24 09:13:13;;;;;;;9.3;4.9;;;;;;;7.31;76.1;97625;;;;
2024/03/24 09:23:13;;;;;;;9.3;4.9;;;;;;;5.59;80.25;97660;;;;
2024/03/24 09:33:13;;;;;;;7.5;4.2;;;;;;;4.77;82.92;97670;;;;
2024/03/24 09:44:13;;;;;;;7.5;4.2;;;;;;;4.03;84.43;97670;;;;
2024/03/24 09:54:13;;;;;;;7.5;4.2;;;;;;;4.27;84.47;97655;;;;
2024/03/24 10:04:13;;;;;;;7.8;2.8;;;;;;;5.02;83.88;97640;;;;
2024/03/24 10:14:15;;;;;;;7.8;2.8;;;;;;;6.72;82.47;97633.333333333;;;;
2024/03/24 10:25:13;;;;;;;7.8;2.8;;;;;;;7.68;76.87;97621.666666667;;;;
2024/03/24 10:36:13;;;;;;;5.6;2.2;;;;;;;7.55;75.42;97615;;;;
2024/03/24 10:47:13;;;;;;;5.6;2.2;;;;;;;7.9;74.51;97600;;;;
2024/03/24 10:58:14;;;;;;;6.8;2.6;;;;;;;8.08;74.13;97580;;;;
2024/03/24 11:09:13;;;;;;;6.8;2.6;;;;;;;7.93;69.53;97575;;;;
2024/03/24 11:19:13;;;;;;;6.8;2.6;;;;;;;7.57;71.43;97575;;;;
2024/03/24 11:29:13;;;;;;;5.9;3.1;;;;;;;7.47;70.42;97573.333333333;;;;
2024/03/24 11:40:13;;;;;;;5.9;3.1;;;;;;;5.44;77.72;97623.333333333;;;;
2024/03/24 11:50:13;;;;;;;5.9;3.1;;;;;;;4.55;80.16;97580;;;;
2024/03/24 12:00:13;;;;;;;5.6;2.5;;;;;;;5.43;78.57;97590;;;;
2024/03/24 12:11:15;;;;;;;5.6;2.5;;;;;;;6.09;79.41;97591.666666667;;;;
2024/03/24 12:22:13;;;;;;;5.6;2.5;;;;;;;6.09;78.42;97588.333333333;;;;
2024/03/24 12:32:13;;;;;;;3.2;1.5;;;;;;;6.64;79.42;97570;;;;
2024/03/24 12:43:13;;;;;;;3.2;1.5;;;;;;;7.75;78.24;97546.666666667;;;;
2024/03/24 12:53:13;;;;;;;3.2;1.5;;;;;;;8.12;74.03;97533.333333333;;;;
2024/03/24 13:03:13;;;;;;;4.8;2.5;;;;;;;8.27;70.71;97526.666666667;;;;
2024/03/24 13:14:13;;;;;;;4.8;2.5;;;;;;;8.42;65.71;97503.333333333;;;;
2024/03/24 13:24:14;;;;;;;4.8;2.5;;;;;;;8.64;64.87;97486.666666667;;;;
2024/03/24 13:35:13;;;;;;;3.9;2;;;;;;;8.56;64.99;97485;;;;
2024/03/24 13:46:13;;;;;;;3.9;2;;;;;;;8.66;64.43;97476.666666667;;;;
2024/03/24 13:56:14;;;;;;;4.5;2.3;;;;;;;8.74;63.78;97471.666666667;;;;
2024/03/24 14:07:14;;;;;;;4.5;2.3;;;;;;;9.17;63.29;97453.333333333;;;;
2024/03/24 14:17:14;;;;;;;4.5;2.3;;;;;;;9.27;61.5;97445;;;;
2024/03/24 14:28:13;;;;;;;5;2.6;;;;;;;9.34;62.4;97440;;;;
2024/03/24 14:38:13;;;;;;;5;2.6;;;;;;;9.75;62.58;97423.333333333;;;;
2024/03/24 14:49:13;;;;;;;5;2.6;;;;;;;9.96;58.43;97415;;;;
2024/03/24 14:59:13;;;;;;;5.4;2.4;;;;;;;10.12;58.23;97400;;;;
2024/03/24 15:10:14;;;;;;;5.4;2.4;;;;;;;10.17;57.11;97393.333333333;;;;
2024/03/24 15:21:13;;;;;;;5.4;2.4;;;;;;;10.67;54.49;97391.666666667;;;;
2024/03/24 15:32:13;;;;;;;4.9;2.7;;;;;;;12.21;49.49;97380;;;;
2024/03/24 15:43:16;;;;;;;4.9;2.7;;;;;;;12.74;43.06;97373.333333333;;;;
2024/03/24 15:53:14;;;;;;;4.9;2.7;;;;;;;14.29;41.41;97373.333333333;;;;
2024/03/24 16:04:13;;;;;;;3.7;1.6;;;;;;;13.5;41.44;97380;;;;
2024/03/24 16:15:14;;;;;;;3.7;1.6;;;;;;;10.78;47.9;97395;;;;
2024/03/24 16:25:14;;;;;;;3.7;1.6;;;;;;;9.43;50.95;97401.666666667;;;;
2024/03/24 16:36:13;;;;;;;5.2;2.1;;;;;;;8.88;54.17;97396.666666667;;;;
2024/03/24 16:46:13;;;;;;;5.2;2.1;;;;;;;8.35;54.75;97391.666666667;;;;
2024/03/24 16:56:14;;;;;;;4.3;1.7;;;;;;;8.07;55.93;97386.666666667;;;;
2024/03/24 17:07:14;;;;;;;4.3;1.7;;;;;;;7.74;57.8;97385;;;;
2024/03/24 17:17:13;;;;;;;4.3;1.7;;;;;;;7.37;59.52;97395;;;;
2024/03/24 17:27:14;;;;;;;7;3.5;;;;;;;7.01;63.99;97401.666666667;;;;
2024/03/24 17:37:13;;;;;;;7;3.5;;;;;;;6.73;65.12;97408.333333333;;;;
2024/03/24 17:47:14;;;;;;;7;3.5;;;;;;;6.39;65.77;97413.333333333;;;;
2024/03/24 17:57:14;;;;;;;6.2;3.1;;;;;;;6.16;64.79;97418.333333333;;;;
2024/03/24 18:18:13;;;;;;;6.2;3.1;;;;;;;5.74;65.84;97433.333333333;;;;
2024/03/24 18:28:18;;;;;;;6.3;3.8;;;;;;;5.69;66.8;97425;;;;
2024/03/24 18:38:14;;;;;;;6.3;3.8;;;;;;;5.65;68.16;97420;;;;
2024/03/24 18:48:14;;;;;;;6.3;3.8;;;;;;;5.76;67.08;97426.666666667;;;;
2024/03/24 18:59:13;;;;;;;8.7;4.5;;;;;;;5.94;66.98;97438.333333333;;;;
2024/03/24 19:09:14;;;;;;;8.7;4.5;;;;;;;6.1;66.6;97445;;;;
2024/03/24 19:19:14;;;;;;;8.7;4.5;;;;;;;6.17;66.66;97448.333333333;;;;
2024/03/24 19:30:15;;;;;;;13;7;;;;;;;6.16;68.5;97446.666666667;;;;
2024/03/24 19:41:14;;;;;;;13;7;;;;;;;6;69.26;97435;;;;
2024/03/24 19:51:14;;;;;;;13;7;;;;;;;5.7;70.13;97425;;;;
2024/03/24 20:02:14;;;;;;;8.9;4.3;;;;;;;5.42;70.51;97443.333333333;;;;
2024/03/24 20:13:14;;;;;;;8.9;4.3;;;;;;;4.96;72.14;97440;;;;
2024/03/24 20:23:15;;;;;;;8.9;4.3;;;;;;;4.66;73.69;97433.333333333;;;;
2024/03/24 20:33:14;;;;;;;5.9;3.2;;;;;;;4.33;74.88;97433.333333333;;;;
2024/03/24 20:43:14;;;;;;;5.9;3.2;;;;;;;4.08;75.05;97428.333333333;;;;
2024/03/24 20:54:15;;;;;;;5.9;3.2;;;;;;;4.05;76.57;97420;;;;
2024/03/24 21:04:14;;;;;;;6.5;3;;;;;;;4.23;75.74;97415;;;;
2024/03/24 21:15:14;;;;;;;6.5;3;;;;;;;4.35;75.23;97411.666666667;;;;
2024/03/24 21:26:14;;;;;;;7.2;3.5;;;;;;;4.33;75.06;97408.333333333;;;;
2024/03/24 21:36:14;;;;;;;7.2;3.5;;;;;;;4.43;74.26;97401.666666667;;;;
2024/03/24 21:47:14;;;;;;;7.2;3.5;;;;;;;4.4;74.1;97400;;;;
2024/03/24 21:57:14;;;;;;;5.1;2.7;;;;;;;4.37;74.29;97398.333333333;;;;
2024/03/24 22:08:14;;;;;;;5.1;2.7;;;;;;;4.4;74.59;97373.333333333;;;;
2024/03/24 22:18:14;;;;;;;5.1;2.7;;;;;;;4.27;74.2;97371.666666667;;;;
2024/03/24 22:29:14;;;;;;;6.2;1.8;;;;;;;4.02;74.59;97366.666666667;;;;
2024/03/24 22:39:14;;;;;;;6.2;1.8;;;;;;;3.89;74.58;97360;;;;
2024/03/24 22:49:14;;;;;;;6.2;1.8;;;;;;;3.8;74.7;97350;;;;
2024/03/24 22:59:14;;;;;;;4.7;2;;;;;;;3.76;74.97;97345;;;;
2024/03/24 23:10:14;;;;;;;4.7;2;;;;;;;3.65;75.6;97343.333333333;;;;
2024/03/24 23:20:14;;;;;;;4.7;2;;;;;;;3.48;76.3;97335;;;;
2024/03/24 23:31:14;;;;;;;4.9;1.9;;;;;;;3.46;76.15;97345;;;;
2024/03/24 23:42:14;;;;;;;4.9;1.9;;;;;;;3.4;76.79;97340;;;;
2024/03/24 23:53:14;;;;;;;4.9;1.9;;;;;;;3.3;77.02;97340;;;;
